Latest Weather Observations for Roma

IDQ60801

Issued at 12:02 pm EST Tuesday 31 May 2016 (issued every 30 minutes, with the page automatically refreshed every 10 minutes)

About weather observations | Map of weather stations | Latest weather observations for QLD | Other Formats
Station Details ID: 043091 Name: ROMA AIRPORT Lat: -26.55 Lon: 148.77 Height: 307.38 m
Data from the previous 72 hours. | See also: Recent months at Roma
Date/Time
EST
Temp
°C
App
Temp
°C
Dew
Point
Rel
Hum
%
Delta-T
°C
Wind Press
QNH
hPa
Press
MSL
hPa
Rain
since 9 am
mm
Dir
 
Spd
km/h
Gust
km/h
Spd
kts
Gust
kts
31/12:00pm 19.5 15.5 4.8 38 7.2 NE 15 22 8 12 1024.0 1023.5 0.0
31/11:30am 19.9 16.4 5.5 39 7.2 NE 13 17 7 9 1024.7 1024.2 0.0
31/11:00am 17.8 14.7 3.7 39 6.7 ENE 9 15 5 8 1025.1 1024.6 0.0
31/10:30am 17.1 13.5 2.7 38 6.7 NNE 11 15 6 8 1025.8 1025.4 0.0
31/10:00am 15.8 12.1 2.6 41 6.0 N 11 17 6 9 1026.1 1025.7 0.0
31/09:30am 14.3 11.5 1.9 43 5.5 NNE 6 9 3 5 1026.1 1025.7 0.0
31/09:00am 12.4 9.5 2.8 52 4.3 W 7 9 4 5 1026.2 1025.8 0.0
31/08:30am 10.7 8.4 2.8 58 3.5 SW 4 7 2 4 1025.8 1025.4 0.0
31/08:00am 9.2 7.3 2.8 64 2.8 SSW 2 7 1 4 1025.4 1024.9 0.0
31/07:30am 7.3 4.6 2.8 73 1.9 W 6 7 3 4 1025.2 1024.7 0.0
31/07:00am 6.0 3.1 1.5 73 1.8 WSW 6 9 3 5 1024.9 1024.4 0.0
31/06:30am 6.0 2.8 1.0 70 2.0 WSW 7 7 4 4 1024.9 1024.4 0.0
31/06:00am 7.4 4.9 1.3 65 2.5 NNW 4 9 2 5 1024.8 1024.3 0.0
31/05:30am 7.1 4.5 1.0 65 2.5 N 4 11 2 6 1024.5 1024.0 0.0
31/05:00am 7.2 4.5 0.4 62 2.7 E 4 11 2 6 1024.2 1023.7 0.0
31/04:30am 9.0 4.8 1.7 60 3.1 E 13 15 7 8 1023.7 1023.3 0.0
31/04:00am 9.3 5.9 1.9 60 3.1 E 9 13 5 7 1023.6 1023.2 0.0
31/03:30am 8.4 4.6 2.0 64 2.7 ESE 11 17 6 9 1023.6 1023.2 0.0
31/03:00am 7.6 4.1 1.2 64 2.6 ESE 9 13 5 7 1023.4 1023.0 0.0
31/02:30am 8.7 5.6 1.6 61 3.0 SE 7 11 4 6 1023.4 1023.0 0.0
31/02:00am 8.8 6.0 2.2 63 2.8 E 6 7 3 4 1023.6 1023.2 0.0
31/01:30am 8.9 6.1 1.8 61 3.0 SSE 6 9 3 5 1023.8 1023.4 0.0
31/01:00am 8.6 6.7 0.8 58 3.2 CALM 0 0 0 0 1024.2 1023.7 0.0
31/12:30am 9.5 6.6 1.7 58 3.3 SE 6 9 3 5 1024.0 1023.5 0.0
31/12:00am 10.0 7.1 1.6 56 3.5 SSE 6 9 3 5 1024.1 1023.6 0.0
 
Date/Time
EST
Temp
°C
App
Temp
°C
Dew
Point
Rel
Hum
%
Delta-T
°C
Wind Press
QNH
hPa
Press
MSL
hPa
Rain
since 9 am
mm
Dir
 
Spd
km/h
Gust
km/h
Spd
kts
Gust
kts
30/11:30pm 10.0 6.6 1.9 57 3.5 SSE 9 11 5 6 1024.1 1023.6 0.0
30/11:00pm 9.2 6.2 1.1 57 3.4 S 6 7 3 4 1024.2 1023.7 0.0
30/10:30pm 10.2 8.5 1.6 55 3.7 CALM 0 0 0 0 1024.3 1023.8 0.0
30/10:00pm 8.7 5.7 1.1 59 3.1 ESE 6 7 3 4 1024.0 1023.5 0.0
30/09:30pm 9.8 7.7 1.7 57 3.4 E 2 7 1 4 1024.2 1023.7 0.0
30/09:00pm 9.0 5.8 0.5 55 3.5 SE 7 9 4 5 1024.3 1023.8 0.0
30/08:30pm 10.7 7.2 1.5 53 3.9 SE 9 9 5 5 1024.1 1023.6 0.0
30/08:00pm 10.7 7.6 1.5 53 3.9 E 7 9 4 5 1023.8 1023.4 0.0
30/07:30pm 11.5 8.0 1.5 50 4.3 SSE 9 9 5 5 1023.7 1023.3 0.0
30/07:00pm 12.4 8.9 1.4 47 4.7 SE 9 9 5 5 1023.6 1023.2 0.0
30/06:30pm 13.0 9.1 1.4 45 5.0 SSE 11 13 6 7 1023.5 1023.1 0.0
30/06:00pm 14.1 10.1 0.7 40 5.8 SSE 11 13 6 7 1023.1 1022.7 0.0
30/05:30pm 15.4 11.4 0.4 36 6.5 SSE 11 15 6 8 1022.7 1022.2 0.0
30/05:00pm 18.2 13.5 0.8 31 7.8 SE 15 19 8 10 1022.1 1021.6 0.0
30/04:30pm 19.6 15.2 0.6 28 8.6 SE 13 17 7 9 1021.8 1021.3 0.0
30/04:00pm 20.3 16.3 0.7 27 8.9 SE 11 19 6 10 1021.5 1021.0 0.0
30/03:30pm 20.7 16.8 1.1 27 9.0 SE 11 20 6 11 1021.7 1021.2 0.0
30/03:00pm 21.0 17.0 0.8 26 9.3 S 11 17 6 9 1021.7 1021.2 0.0
30/02:30pm 21.0 17.1 1.3 27 9.1 E 11 17 6 9 1021.9 1021.4 0.0
30/02:00pm 20.7 16.4 1.1 27 9.0 SE 13 19 7 10 1022.1 1021.6 0.0
30/01:30pm 20.3 16.1 1.7 29 8.7 SE 13 20 7 11 1022.0 1021.5 0.0
30/01:00pm 20.2 16.5 2.1 30 8.5 SSE 11 22 6 12 1022.4 1021.9 0.0
30/12:30pm 19.0 15.6 2.0 32 7.9 ESE 9 15 5 8 1023.0 1022.6 0.0
30/12:00pm 19.1 15.3 2.0 32 7.9 ESE 11 15 6 8 1023.7 1023.3 0.0
30/11:30am 18.6 15.4 3.3 36 7.3 SE 9 15 5 8 1024.2 1023.7 0.0
30/11:00am 17.4 13.1 3.0 38 6.7 E 15 20 8 11 1024.7 1024.2 0.0
30/10:30am 16.5 12.9 3.2 41 6.2 E 11 17 6 9 1024.8 1024.3 0.0
30/10:00am 15.1 12.6 3.9 47 5.2 E 6 9 3 5 1025.0 1024.5 0.0
30/09:30am 13.3 10.6 3.7 52 4.4 ENE 7 11 4 6 1025.2 1024.7 0.0
30/09:00am 11.3 9.5 3.6 59 3.4 SE 2 7 1 4 1025.2 1024.7 0.0
30/08:30am 8.0 6.6 3.3 72 2.0 CALM 0 0 0 0 1024.9 1024.4 0.0
30/08:00am 5.1 3.3 1.4 77 1.5 CALM 0 0 0 0 1024.4 1023.9 0.0
30/07:30am 2.3 0.4 0.5 88 0.7 CALM 0 0 0 0 1024.1 1023.6 0.0
30/07:00am 0.2 -2.0 -1.2 90 0.5 CALM 0 0 0 0 1023.7 1023.3 0.0
30/06:30am 0.5 -1.6 -0.8 91 0.5 CALM 0 0 0 0 1023.3 1022.9 0.0
30/06:00am -0.3 -2.5 -1.7 90 0.5 CALM 0 0 0 0 1022.8 1022.4 0.0
30/05:30am 0.0 -2.2 -1.4 90 0.5 CALM 0 0 0 0 1022.5 1022.0 0.0
30/05:00am -0.2 -2.5 -2.1 87 0.7 CALM 0 0 0 0 1022.3 1021.8 0.0
30/04:30am 0.6 -1.5 -1.0 89 0.6 CALM 0 0 0 0 1022.2 1021.7 0.0
30/04:00am 0.9 -1.2 -0.5 90 0.5 CALM 0 0 0 0 1021.8 1021.3 0.0
30/03:30am 0.3 -1.9 -1.6 87 0.7 CALM 0 0 0 0 1021.7 1021.2 0.0
30/03:00am 1.0 -1.2 -1.6 83 0.9 CALM 0 7 0 4 1021.8 1021.3 0.0
30/02:30am 1.7 -0.3 -0.4 86 0.8 CALM 0 0 0 0 1021.7 1021.2 0.0
30/02:00am 1.7 -0.3 -0.4 86 0.8 CALM 0 0 0 0 1021.6 1021.1 0.0
30/01:30am 2.2 0.3 0.4 88 0.7 CALM 0 0 0 0 1021.7 1021.2 0.0
30/01:00am 1.9 -0.6 -0.7 83 1.0 W 2 7 1 4 1021.7 1021.2 0.0
30/12:30am 3.2 1.3 0.8 84 0.9 CALM 0 0 0 0 1021.6 1021.1 0.0
30/12:00am 3.2 1.3 0.6 83 1.0 CALM 0 0 0 0 1021.7 1021.2 0.0
 
Date/Time
EST
Temp
°C
App
Temp
°C
Dew
Point
Rel
Hum
%
Delta-T
°C
Wind Press
QNH
hPa
Press
MSL
hPa
Rain
since 9 am
mm
Dir
 
Spd
km/h
Gust
km/h
Spd
kts
Gust
kts
29/11:30pm 3.0 -0.1 -0.1 80 1.2 NNW 6 7 3 4 1021.8 1021.3 0.0
29/11:00pm 3.0 0.9 -0.5 78 1.3 CALM 0 0 0 0 1021.9 1021.4 0.0
29/10:30pm 4.2 2.4 1.2 81 1.2 CALM 0 0 0 0 1022.0 1021.5 0.0
29/10:00pm 4.1 1.0 -0.1 74 1.6 N 6 7 3 4 1022.0 1021.5 0.0
29/09:30pm 5.3 3.4 0.3 70 2.0 CALM 0 0 0 0 1022.1 1021.6 0.0
29/09:00pm 6.3 3.4 1.6 72 1.9 N 6 7 3 4 1022.0 1021.5 0.0
29/08:30pm 7.6 6.0 2.3 69 2.2 CALM 0 0 0 0 1022.2 1021.7 0.0
29/08:00pm 7.8 6.1 2.1 67 2.4 CALM 0 0 0 0 1021.9 1021.4 0.0
29/07:30pm 8.5 6.7 1.0 59 3.1 CALM 0 0 0 0 1021.7 1021.2 0.0
29/07:00pm 11.1 9.6 2.9 57 3.6 CALM 0 0 0 0 1021.3 1020.8 0.0
29/06:30pm 12.6 10.2 2.2 49 4.6 E 4 6 2 3 1021.0 1020.5 0.0
29/06:00pm 13.4 10.4 0.8 42 5.4 ESE 6 7 3 4 1020.6 1020.1 0.0
29/05:30pm 15.5 12.3 0.9 37 6.4 SSE 7 11 4 6 1020.1 1019.7 0.0
29/05:00pm 17.6 14.0 0.7 32 7.5 S 9 11 5 6 1019.8 1019.3 0.0
29/04:30pm 18.3 15.2 0.4 30 8.0 SE 6 9 3 5 1019.7 1019.2 0.0
29/04:00pm 19.5 16.9 1.0 29 8.4 W 4 9 2 5 1019.6 1019.1 0.0
29/03:30pm 18.9 15.4 1.4 31 8.0 SE 9 17 5 9 1019.3 1018.8 0.0
29/03:00pm 19.2 16.0 0.8 29 8.3 WSW 7 13 4 7 1019.4 1018.9 0.0
29/02:30pm 18.2 14.2 0.8 31 7.8 S 11 19 6 10 1019.2 1018.7 0.0
29/02:00pm 18.4 14.5 1.0 31 7.8 SW 11 19 6 10 1019.0 1018.5 0.0
29/01:30pm 18.0 13.6 0.6 31 7.8 SSW 13 19 7 10 1019.3 1018.8 0.0
29/01:00pm 18.3 15.0 2.2 34 7.4 E 9 13 5 7 1019.5 1019.0 0.0
29/12:30pm 17.0 12.8 1.8 36 6.9 S 13 20 7 11 1020.0 1019.6 0.0
29/12:00pm 16.5 12.4 2.5 39 6.4 SSE 13 19 7 10 1020.1 1019.7 0.0
29/11:30am 15.0 11.4 3.2 45 5.4 SE 11 19 6 10 1020.8 1020.3 0.0
29/11:00am 15.7 11.5 3.8 45 5.6 ESE 15 20 8 11 1021.4 1020.9 0.0
29/10:30am 14.6 10.8 3.7 48 5.1 SE 13 20 7 11 1021.8 1021.3 0.0
29/10:00am 13.1 11.3 3.7 53 4.3 ESE 2 6 1 3 1021.9 1021.4 0.0
29/09:30am 12.3 9.1 3.3 54 4.1 ESE 9 11 5 6 1021.4 1020.9 0.0
29/09:00am 11.6 9.4 3.1 56 3.8 NE 4 9 2 5 1021.7 1021.2 0.0
29/08:30am 9.0 6.5 3.6 69 2.4 N 6 9 3 5 1022.0 1021.5 0.0
29/08:00am 5.5 2.7 2.3 80 1.3 NNE 6 7 3 4 1021.6 1021.1 0.0
29/07:30am 2.4 -0.3 0.6 88 0.7 NNE 4 7 2 4 1021.4 1020.9 0.0
29/07:00am 0.2 -3.7 -1.5 88 0.6 NNE 9 9 5 5 1020.9 1020.4 0.0
29/06:30am 0.5 -2.0 -0.9 90 0.5 NNW 2 6 1 3 1020.6 1020.1 0.0
29/06:00am 0.5 -1.7 -1.3 88 0.7 CALM 0 0 0 0 1020.0 1019.6 0.0
29/05:30am 0.6 -3.3 -1.6 85 0.8 N 9 11 5 6 1020.0 1019.6 0.0
29/05:00am 1.3 -2.1 -0.9 85 0.8 N 7 9 4 5 1019.5 1019.0 0.0
29/04:30am 1.3 -2.5 -0.6 87 0.7 N 9 9 5 5 1019.3 1018.8 0.0
29/04:00am 1.2 -0.9 -0.6 88 0.7 CALM 0 0 0 0 1019.2 1018.7 0.0
29/03:30am -0.2 -3.0 -2.9 82 0.9 NNE 2 9 1 5 1019.1 1018.6 0.0
29/03:00am 0.4 -1.9 -2.0 84 0.9 CALM 0 6 0 3 1019.0 1018.5 0.0
29/02:30am 1.7 -2.1 -1.0 82 1.0 N 9 11 5 6 1019.0 1018.5 0.0
29/02:00am 2.7 -0.4 0.3 84 0.9 NNE 6 9 3 5 1018.9 1018.4 0.0
29/01:30am 2.5 -0.3 -0.3 82 1.0 N 4 6 2 3 1019.1 1018.6 0.0
29/01:00am 3.2 0.2 0.6 83 1.0 NNE 6 7 3 4 1019.2 1018.7 0.0
29/12:30am 3.1 1.2 0.8 85 0.9 CALM 0 0 0 0 1018.9 1018.4 0.0
29/12:00am 4.0 2.2 1.2 82 1.1 CALM 0 0 0 0 1018.8 1018.3 0.0
 
Date/Time
EST
Temp
°C
App
Temp
°C
Dew
Point
Rel
Hum
%
Delta-T
°C
Wind Press
QNH
hPa
Press
MSL
hPa
Rain
since 9 am
mm
Dir
 
Spd
km/h
Gust
km/h
Spd
kts
Gust
kts
28/11:30pm 5.4 3.7 1.7 77 1.5 CALM 0 0 0 0 1019.0 1018.5 0.0
28/11:00pm 4.5 2.4 1.4 80 1.2 SSE 2 6 1 3 1019.4 1018.9 0.0
28/10:30pm 6.4 3.4 1.7 72 1.9 WNW 7 9 4 5 1019.3 1018.8 0.0
28/10:00pm 5.6 2.6 1.7 76 1.6 WNW 7 9 4 5 1019.0 1018.5 0.0
28/09:30pm 6.8 3.8 0.5 64 2.5 WSW 6 6 3 3 1018.6 1018.1 0.0
28/09:00pm 7.2 4.3 1.5 67 2.3 N 6 7 3 4 1018.7 1018.2 0.0
28/08:30pm 9.7 6.6 1.4 56 3.5 SW 7 9 4 5 1018.4 1017.9 0.0
28/08:00pm 9.1 7.4 1.8 60 3.1 CALM 0 0 0 0 1018.3 1017.8 0.0
28/07:30pm 11.0 7.5 1.3 51 4.1 WSW 9 11 5 6 1017.9 1017.4 0.0
28/07:00pm 11.4 7.5 1.1 49 4.4 WSW 11 13 6 7 1017.5 1017.0 0.0
28/06:30pm 12.6 8.2 0.4 43 5.2 WSW 13 13 7 7 1017.1 1016.5 0.0
28/06:00pm 13.7 9.3 0.4 40 5.7 WSW 13 15 7 8 1016.6 1016.1 0.0
28/05:30pm 16.5 12.0 -0.2 32 7.2 WSW 13 19 7 10 1016.2 1015.7 0.0
28/05:00pm 18.7 12.9 -0.2 28 8.4 WSW 20 28 11 15 1015.8 1015.3 0.0
28/04:30pm 19.8 13.7 0.3 27 8.8 W 22 30 12 16 1015.4 1014.9 0.0
28/04:00pm 20.2 13.4 0.6 27 8.9 W 26 37 14 20 1015.0 1014.5 0.0
28/03:30pm 21.0 14.6 0.8 26 9.3 W 24 32 13 17 1014.7 1014.2 0.0
28/03:00pm 21.0 14.1 2.3 29 8.9 WSW 28 35 15 19 1014.7 1014.2 0.0
28/02:30pm 21.3 14.0 2.6 29 8.9 W 30 41 16 22 1014.7 1014.2 0.0
28/02:00pm 20.8 14.6 2.1 29 8.8 WSW 24 35 13 19 1014.6 1014.1 0.0
28/01:30pm 20.2 12.7 1.1 28 8.8 W 30 39 16 21 1014.9 1014.4 0.0
28/01:00pm 20.4 13.4 1.8 29 8.7 W 28 41 15 22 1015.1 1014.6 0.0
28/12:30pm 20.0 12.9 3.7 34 7.9 W 30 37 16 20 1015.4 1014.9 0.0
28/12:14pm 19.4 12.6 3.2 34 7.7 WSW 28 46 15 25 1015.4 1014.9 0.0

Other Formats:

Comma delimited format used in spreadsheet applications
http://www.bom.gov.au/fwo/IDQ60801/IDQ60801.94515.axf

JavaScript Object Notation format (JSON) in row-major order
http://www.bom.gov.au/fwo/IDQ60801/IDQ60801.94515.json